sensor_id;sensor_type;location;lat;lon;timestamp;temperature;humidity
4725;DHT22;2376;53.544;10.226;2022-11-25T00:01:03;7.40;99.90
4725;DHT22;2376;53.544;10.226;2022-11-25T00:03:30;7.40;99.90
4725;DHT22;2376;53.544;10.226;2022-11-25T00:06:06;7.40;99.90
4725;DHT22;2376;53.544;10.226;2022-11-25T00:08:34;7.40;99.90
4725;DHT22;2376;53.544;10.226;2022-11-25T00:11:02;7.40;99.90
4725;DHT22;2376;53.544;10.226;2022-11-25T00:13:29;7.40;99.90
4725;DHT22;2376;53.544;10.226;2022-11-25T00:16:00;7.40;99.90
4725;DHT22;2376;53.544;10.226;2022-11-25T00:18:27;7.40;99.90
4725;DHT22;2376;53.544;10.226;2022-11-25T00:20:54;7.40;99.90
4725;DHT22;2376;53.544;10.226;2022-11-25T00:23:21;7.40;99.90
4725;DHT22;2376;53.544;10.226;2022-11-25T00:25:47;7.40;99.90
4725;DHT22;2376;53.544;10.226;2022-11-25T00:28:16;7.40;99.90
4725;DHT22;2376;53.544;10.226;2022-11-25T00:30:43;7.40;99.90
4725;DHT22;2376;53.544;10.226;2022-11-25T00:33:10;7.40;99.90
4725;DHT22;2376;53.544;10.226;2022-11-25T00:35:36;7.40;99.90
4725;DHT22;2376;53.544;10.226;2022-11-25T00:38:03;7.40;99.90
4725;DHT22;2376;53.544;10.226;2022-11-25T00:40:30;7.40;99.90
4725;DHT22;2376;53.544;10.226;2022-11-25T00:42:57;7.40;99.90
4725;DHT22;2376;53.544;10.226;2022-11-25T00:45:43;7.40;99.90
4725;DHT22;2376;53.544;10.226;2022-11-25T00:48:09;7.40;99.90
4725;DHT22;2376;53.544;10.226;2022-11-25T00:50:36;7.40;99.90
4725;DHT22;2376;53.544;10.226;2022-11-25T00:53:03;7.40;99.90
4725;DHT22;2376;53.544;10.226;2022-11-25T00:55:30;7.40;99.90
4725;DHT22;2376;53.544;10.226;2022-11-25T00:58:17;7.40;99.90
4725;DHT22;2376;53.544;10.226;2022-11-25T01:00:50;7.50;99.90
4725;DHT22;2376;53.544;10.226;2022-11-25T01:03:18;7.40;99.90
4725;DHT22;2376;53.544;10.226;2022-11-25T01:05:46;7.40;99.90
4725;DHT22;2376;53.544;10.226;2022-11-25T01:08:14;7.50;99.90
4725;DHT22;2376;53.544;10.226;2022-11-25T01:10:41;7.50;99.90
4725;DHT22;2376;53.544;10.226;2022-11-25T01:13:09;7.50;99.90
4725;DHT22;2376;53.544;10.226;2022-11-25T01:15:36;7.50;99.90
4725;DHT22;2376;53.544;10.226;2022-11-25T01:18:05;7.50;99.90
4725;DHT22;2376;53.544;10.226;2022-11-25T01:20:32;7.60;99.90
4725;DHT22;2376;53.544;10.226;2022-11-25T01:22:59;7.50;99.90
4725;DHT22;2376;53.544;10.226;2022-11-25T01:25:26;7.40;99.90
4725;DHT22;2376;53.544;10.226;2022-11-25T01:27:54;7.40;99.90
4725;DHT22;2376;53.544;10.226;2022-11-25T01:30:22;7.40;99.90
4725;DHT22;2376;53.544;10.226;2022-11-25T01:32:49;7.40;99.90
4725;DHT22;2376;53.544;10.226;2022-11-25T01:35:18;7.30;99.90
4725;DHT22;2376;53.544;10.226;2022-11-25T01:37:46;7.40;99.90
4725;DHT22;2376;53.544;10.226;2022-11-25T01:40:14;7.30;99.90
4725;DHT22;2376;53.544;10.226;2022-11-25T01:42:42;7.40;99.90
4725;DHT22;2376;53.544;10.226;2022-11-25T01:45:32;7.40;99.90
4725;DHT22;2376;53.544;10.226;2022-11-25T01:48:03;7.40;99.90
4725;DHT22;2376;53.544;10.226;2022-11-25T01:50:34;7.40;99.90
4725;DHT22;2376;53.544;10.226;2022-11-25T01:53:10;7.40;99.90
4725;DHT22;2376;53.544;10.226;2022-11-25T01:55:43;7.40;99.90
4725;DHT22;2376;53.544;10.226;2022-11-25T01:58:13;7.40;99.90
4725;DHT22;2376;53.544;10.226;2022-11-25T02:00:43;7.40;99.90
4725;DHT22;2376;53.544;10.226;2022-11-25T02:03:17;7.40;99.90
4725;DHT22;2376;53.544;10.226;2022-11-25T02:05:49;7.40;99.90
4725;DHT22;2376;53.544;10.226;2022-11-25T02:08:19;7.40;99.90
4725;DHT22;2376;53.544;10.226;2022-11-25T02:10:48;7.40;99.90
4725;DHT22;2376;53.544;10.226;2022-11-25T02:13:17;7.40;99.90
4725;DHT22;2376;53.544;10.226;2022-11-25T02:15:44;7.30;99.90
4725;DHT22;2376;53.544;10.226;2022-11-25T02:18:11;7.30;99.90
4725;DHT22;2376;53.544;10.226;2022-11-25T02:20:38;7.30;99.90
4725;DHT22;2376;53.544;10.226;2022-11-25T02:23:13;7.40;99.90
4725;DHT22;2376;53.544;10.226;2022-11-25T02:25:44;7.40;99.90
4725;DHT22;2376;53.544;10.226;2022-11-25T02:28:15;7.40;99.90
4725;DHT22;2376;53.544;10.226;2022-11-25T02:30:44;7.40;99.90
4725;DHT22;2376;53.544;10.226;2022-11-25T02:33:12;7.40;99.90
4725;DHT22;2376;53.544;10.226;2022-11-25T02:35:40;7.40;99.90
4725;DHT22;2376;53.544;10.226;2022-11-25T02:38:09;7.40;99.90
4725;DHT22;2376;53.544;10.226;2022-11-25T02:40:50;7.40;99.90
4725;DHT22;2376;53.544;10.226;2022-11-25T02:43:19;7.40;99.90
4725;DHT22;2376;53.544;10.226;2022-11-25T02:45:55;7.40;99.90
4725;DHT22;2376;53.544;10.226;2022-11-25T02:48:23;7.30;99.90
4725;DHT22;2376;53.544;10.226;2022-11-25T02:50:51;7.40;99.90
4725;DHT22;2376;53.544;10.226;2022-11-25T02:53:18;7.40;99.90
4725;DHT22;2376;53.544;10.226;2022-11-25T02:55:48;7.30;99.90
4725;DHT22;2376;53.544;10.226;2022-11-25T02:58:22;7.40;99.90
4725;DHT22;2376;53.544;10.226;2022-11-25T03:00:49;7.30;99.90
4725;DHT22;2376;53.544;10.226;2022-11-25T03:03:17;7.30;99.90
4725;DHT22;2376;53.544;10.226;2022-11-25T03:05:44;7.30;99.90
4725;DHT22;2376;53.544;10.226;2022-11-25T03:08:11;7.30;99.90
4725;DHT22;2376;53.544;10.226;2022-11-25T03:10:39;7.40;99.90
4725;DHT22;2376;53.544;10.226;2022-11-25T03:13:08;7.30;99.90
4725;DHT22;2376;53.544;10.226;2022-11-25T03:15:35;7.30;99.90
4725;DHT22;2376;53.544;10.226;2022-11-25T03:18:03;7.20;99.90
4725;DHT22;2376;53.544;10.226;2022-11-25T03:20:30;7.20;99.90
4725;DHT22;2376;53.544;10.226;2022-11-25T03:22:57;7.30;99.90
4725;DHT22;2376;53.544;10.226;2022-11-25T03:25:25;7.30;99.90
4725;DHT22;2376;53.544;10.226;2022-11-25T03:27:52;7.30;99.90
4725;DHT22;2376;53.544;10.226;2022-11-25T03:30:22;7.30;99.90
4725;DHT22;2376;53.544;10.226;2022-11-25T03:32:50;7.30;99.90
4725;DHT22;2376;53.544;10.226;2022-11-25T03:35:17;7.30;99.90
4725;DHT22;2376;53.544;10.226;2022-11-25T03:37:44;7.30;99.90
4725;DHT22;2376;53.544;10.226;2022-11-25T03:40:13;7.40;99.90
4725;DHT22;2376;53.544;10.226;2022-11-25T03:42:41;7.40;99.90
4725;DHT22;2376;53.544;10.226;2022-11-25T03:45:10;7.40;99.90
4725;DHT22;2376;53.544;10.226;2022-11-25T03:47:40;7.40;99.90
4725;DHT22;2376;53.544;10.226;2022-11-25T03:50:09;7.40;99.90
4725;DHT22;2376;53.544;10.226;2022-11-25T03:52:37;7.40;99.90
4725;DHT22;2376;53.544;10.226;2022-11-25T03:55:05;7.40;99.90
4725;DHT22;2376;53.544;10.226;2022-11-25T03:57:33;7.40;99.90
4725;DHT22;2376;53.544;10.226;2022-11-25T04:00:00;7.40;99.90
4725;DHT22;2376;53.544;10.226;2022-11-25T04:02:27;7.40;99.90
4725;DHT22;2376;53.544;10.226;2022-11-25T04:04:55;7.40;99.90
4725;DHT22;2376;53.544;10.226;2022-11-25T04:07:22;7.40;99.90
4725;DHT22;2376;53.544;10.226;2022-11-25T04:09:49;7.40;99.90
4725;DHT22;2376;53.544;10.226;2022-11-25T04:12:16;7.40;99.90
4725;DHT22;2376;53.544;10.226;2022-11-25T04:15:00;7.40;99.90
4725;DHT22;2376;53.544;10.226;2022-11-25T04:17:27;7.40;99.90
4725;DHT22;2376;53.544;10.226;2022-11-25T04:19:55;7.40;99.90
4725;DHT22;2376;53.544;10.226;2022-11-25T04:22:22;7.40;99.90
4725;DHT22;2376;53.544;10.226;2022-11-25T04:24:49;7.40;99.90
4725;DHT22;2376;53.544;10.226;2022-11-25T04:27:16;7.40;99.90
4725;DHT22;2376;53.544;10.226;2022-11-25T04:29:43;7.40;99.90
4725;DHT22;2376;53.544;10.226;2022-11-25T04:32:10;7.40;99.90
4725;DHT22;2376;53.544;10.226;2022-11-25T04:34:37;7.30;99.90
4725;DHT22;2376;53.544;10.226;2022-11-25T04:37:05;7.50;99.90
4725;DHT22;2376;53.544;10.226;2022-11-25T04:39:32;7.30;99.90
4725;DHT22;2376;53.544;10.226;2022-11-25T04:42:02;7.40;99.90
4725;DHT22;2376;53.544;10.226;2022-11-25T04:44:46;7.40;99.90
4725;DHT22;2376;53.544;10.226;2022-11-25T04:47:13;7.30;99.90
4725;DHT22;2376;53.544;10.226;2022-11-25T04:49:40;7.30;99.90
4725;DHT22;2376;53.544;10.226;2022-11-25T04:52:09;7.30;99.90
4725;DHT22;2376;53.544;10.226;2022-11-25T04:54:36;7.30;99.90
4725;DHT22;2376;53.544;10.226;2022-11-25T04:57:03;7.40;99.90
4725;DHT22;2376;53.544;10.226;2022-11-25T04:59:30;7.40;99.90
4725;DHT22;2376;53.544;10.226;2022-11-25T05:02:10;7.30;99.90
4725;DHT22;2376;53.544;10.226;2022-11-25T05:04:38;7.30;99.90
4725;DHT22;2376;53.544;10.226;2022-11-25T05:07:05;7.30;99.90
4725;DHT22;2376;53.544;10.226;2022-11-25T05:09:33;7.30;99.90
4725;DHT22;2376;53.544;10.226;2022-11-25T05:12:00;7.30;99.90
4725;DHT22;2376;53.544;10.226;2022-11-25T05:14:27;7.30;99.90
4725;DHT22;2376;53.544;10.226;2022-11-25T05:16:54;7.20;99.90
4725;DHT22;2376;53.544;10.226;2022-11-25T05:19:21;7.20;99.90
4725;DHT22;2376;53.544;10.226;2022-11-25T05:21:48;7.20;99.90
4725;DHT22;2376;53.544;10.226;2022-11-25T05:24:15;7.20;99.90
4725;DHT22;2376;53.544;10.226;2022-11-25T05:26:43;7.20;99.90
4725;DHT22;2376;53.544;10.226;2022-11-25T05:29:10;7.20;99.90
4725;DHT22;2376;53.544;10.226;2022-11-25T05:31:37;7.20;99.90
4725;DHT22;2376;53.544;10.226;2022-11-25T05:34:04;7.30;99.90
4725;DHT22;2376;53.544;10.226;2022-11-25T05:36:31;7.30;99.90
4725;DHT22;2376;53.544;10.226;2022-11-25T05:38:58;7.20;99.90
4725;DHT22;2376;53.544;10.226;2022-11-25T05:41:25;7.20;99.90
4725;DHT22;2376;53.544;10.226;2022-11-25T05:43:54;7.20;99.90
4725;DHT22;2376;53.544;10.226;2022-11-25T05:46:21;7.20;99.90
4725;DHT22;2376;53.544;10.226;2022-11-25T05:48:52;7.20;99.90
4725;DHT22;2376;53.544;10.226;2022-11-25T05:51:19;7.20;99.90
4725;DHT22;2376;53.544;10.226;2022-11-25T05:53:45;7.20;99.90
4725;DHT22;2376;53.544;10.226;2022-11-25T05:56:12;7.10;99.90
4725;DHT22;2376;53.544;10.226;2022-11-25T05:58:39;7.10;99.90
4725;DHT22;2376;53.544;10.226;2022-11-25T06:01:09;6.90;99.90
4725;DHT22;2376;53.544;10.226;2022-11-25T06:03:36;6.70;99.90
4725;DHT22;2376;53.544;10.226;2022-11-25T06:06:04;6.50;99.90
4725;DHT22;2376;53.544;10.226;2022-11-25T06:08:32;6.40;99.90
4725;DHT22;2376;53.544;10.226;2022-11-25T06:10:58;6.30;99.90
4725;DHT22;2376;53.544;10.226;2022-11-25T06:13:25;6.30;99.90
4725;DHT22;2376;53.544;10.226;2022-11-25T06:15:52;6.30;99.90
4725;DHT22;2376;53.544;10.226;2022-11-25T06:18:20;6.40;99.90
4725;DHT22;2376;53.544;10.226;2022-11-25T06:20:55;6.40;99.90
4725;DHT22;2376;53.544;10.226;2022-11-25T06:23:22;6.40;99.90
4725;DHT22;2376;53.544;10.226;2022-11-25T06:25:49;6.40;99.90
4725;DHT22;2376;53.544;10.226;2022-11-25T06:28:16;6.50;99.90
4725;DHT22;2376;53.544;10.226;2022-11-25T06:30:43;6.60;99.90
4725;DHT22;2376;53.544;10.226;2022-11-25T06:33:10;6.50;99.90
4725;DHT22;2376;53.544;10.226;2022-11-25T06:35:38;6.50;99.90
4725;DHT22;2376;53.544;10.226;2022-11-25T06:38:05;6.50;99.90
4725;DHT22;2376;53.544;10.226;2022-11-25T06:40:31;6.60;99.90
4725;DHT22;2376;53.544;10.226;2022-11-25T06:42:58;6.60;99.90
4725;DHT22;2376;53.544;10.226;2022-11-25T06:45:25;6.60;99.90
4725;DHT22;2376;53.544;10.226;2022-11-25T06:47:52;6.70;99.90
4725;DHT22;2376;53.544;10.226;2022-11-25T06:50:19;6.70;99.90
4725;DHT22;2376;53.544;10.226;2022-11-25T06:52:47;6.70;99.90
4725;DHT22;2376;53.544;10.226;2022-11-25T06:55:14;6.70;99.90
4725;DHT22;2376;53.544;10.226;2022-11-25T06:57:40;6.70;99.90
4725;DHT22;2376;53.544;10.226;2022-11-25T07:00:08;6.70;99.90
4725;DHT22;2376;53.544;10.226;2022-11-25T07:02:35;6.70;99.90
4725;DHT22;2376;53.544;10.226;2022-11-25T07:05:02;6.70;99.90
4725;DHT22;2376;53.544;10.226;2022-11-25T07:07:29;6.70;99.90
4725;DHT22;2376;53.544;10.226;2022-11-25T07:09:57;6.60;99.90
4725;DHT22;2376;53.544;10.226;2022-11-25T07:12:23;6.40;99.90
4725;DHT22;2376;53.544;10.226;2022-11-25T07:14:50;6.30;99.90
4725;DHT22;2376;53.544;10.226;2022-11-25T07:17:17;6.20;99.90
4725;DHT22;2376;53.544;10.226;2022-11-25T07:19:44;6.20;99.90
4725;DHT22;2376;53.544;10.226;2022-11-25T07:22:10;6.30;99.90
4725;DHT22;2376;53.544;10.226;2022-11-25T07:24:37;6.20;99.90
4725;DHT22;2376;53.544;10.226;2022-11-25T07:27:05;6.20;99.90
4725;DHT22;2376;53.544;10.226;2022-11-25T07:29:32;6.20;99.90
4725;DHT22;2376;53.544;10.226;2022-11-25T07:32:01;6.20;99.90
4725;DHT22;2376;53.544;10.226;2022-11-25T07:34:28;6.10;99.90
4725;DHT22;2376;53.544;10.226;2022-11-25T07:36:54;6.20;99.90
4725;DHT22;2376;53.544;10.226;2022-11-25T07:39:22;6.40;99.90
4725;DHT22;2376;53.544;10.226;2022-11-25T07:41:50;6.50;99.90
4725;DHT22;2376;53.544;10.226;2022-11-25T07:44:19;6.70;99.90
4725;DHT22;2376;53.544;10.226;2022-11-25T07:46:47;6.70;99.90
4725;DHT22;2376;53.544;10.226;2022-11-25T07:49:15;6.80;99.90
4725;DHT22;2376;53.544;10.226;2022-11-25T07:51:46;6.90;99.90
4725;DHT22;2376;53.544;10.226;2022-11-25T07:54:13;6.80;99.90
4725;DHT22;2376;53.544;10.226;2022-11-25T07:56:41;6.70;99.90
4725;DHT22;2376;53.544;10.226;2022-11-25T07:59:11;6.50;99.90
4725;DHT22;2376;53.544;10.226;2022-11-25T08:01:40;6.60;99.90
4725;DHT22;2376;53.544;10.226;2022-11-25T08:04:08;6.80;99.90
4725;DHT22;2376;53.544;10.226;2022-11-25T08:06:37;6.90;99.90
4725;DHT22;2376;53.544;10.226;2022-11-25T08:09:05;6.90;99.90
4725;DHT22;2376;53.544;10.226;2022-11-25T08:11:31;6.70;99.90
4725;DHT22;2376;53.544;10.226;2022-11-25T08:13:59;6.80;99.90
4725;DHT22;2376;53.544;10.226;2022-11-25T08:16:27;6.90;99.90
4725;DHT22;2376;53.544;10.226;2022-11-25T08:18:57;7.00;99.90
4725;DHT22;2376;53.544;10.226;2022-11-25T08:21:25;7.10;99.90
4725;DHT22;2376;53.544;10.226;2022-11-25T08:23:52;7.20;99.90
4725;DHT22;2376;53.544;10.226;2022-11-25T08:26:21;7.30;99.90
4725;DHT22;2376;53.544;10.226;2022-11-25T08:28:49;7.40;99.90
4725;DHT22;2376;53.544;10.226;2022-11-25T08:31:18;7.40;99.90
4725;DHT22;2376;53.544;10.226;2022-11-25T08:33:46;7.50;99.90
4725;DHT22;2376;53.544;10.226;2022-11-25T08:36:14;7.50;99.90
4725;DHT22;2376;53.544;10.226;2022-11-25T08:38:42;7.50;99.90
4725;DHT22;2376;53.544;10.226;2022-11-25T08:41:11;7.50;99.90
4725;DHT22;2376;53.544;10.226;2022-11-25T08:43:38;7.50;99.90
4725;DHT22;2376;53.544;10.226;2022-11-25T08:46:10;7.60;99.90
4725;DHT22;2376;53.544;10.226;2022-11-25T08:48:37;7.60;99.90
4725;DHT22;2376;53.544;10.226;2022-11-25T08:51:07;7.60;99.90
4725;DHT22;2376;53.544;10.226;2022-11-25T08:53:36;7.60;99.90
4725;DHT22;2376;53.544;10.226;2022-11-25T08:56:04;7.60;99.90
4725;DHT22;2376;53.544;10.226;2022-11-25T08:58:31;7.60;99.90
4725;DHT22;2376;53.544;10.226;2022-11-25T09:00:58;7.70;99.90
4725;DHT22;2376;53.544;10.226;2022-11-25T09:03:25;7.70;99.90
4725;DHT22;2376;53.544;10.226;2022-11-25T09:05:52;7.60;99.90
4725;DHT22;2376;53.544;10.226;2022-11-25T09:08:19;7.40;99.90
4725;DHT22;2376;53.544;10.226;2022-11-25T09:10:48;7.50;99.90
4725;DHT22;2376;53.544;10.226;2022-11-25T09:13:15;7.50;99.90
4725;DHT22;2376;53.544;10.226;2022-11-25T09:15:41;7.60;99.90
4725;DHT22;2376;53.544;10.226;2022-11-25T09:18:10;7.60;99.90
4725;DHT22;2376;53.544;10.226;2022-11-25T09:20:40;7.70;99.90
4725;DHT22;2376;53.544;10.226;2022-11-25T09:23:08;7.70;99.90
4725;DHT22;2376;53.544;10.226;2022-11-25T09:25:35;7.70;99.90
4725;DHT22;2376;53.544;10.226;2022-11-25T09:28:03;7.80;99.90
4725;DHT22;2376;53.544;10.226;2022-11-25T09:30:31;7.90;99.90
4725;DHT22;2376;53.544;10.226;2022-11-25T09:32:58;8.00;99.90
4725;DHT22;2376;53.544;10.226;2022-11-25T09:35:26;8.10;99.90
4725;DHT22;2376;53.544;10.226;2022-11-25T09:37:52;8.10;99.90
4725;DHT22;2376;53.544;10.226;2022-11-25T09:40:32;8.20;99.90
4725;DHT22;2376;53.544;10.226;2022-11-25T09:43:06;8.30;99.90
4725;DHT22;2376;53.544;10.226;2022-11-25T09:45:57;8.40;99.90
4725;DHT22;2376;53.544;10.226;2022-11-25T09:49:05;8.40;99.90
4725;DHT22;2376;53.544;10.226;2022-11-25T09:51:45;8.40;99.90
4725;DHT22;2376;53.544;10.226;2022-11-25T09:54:18;8.50;99.90
4725;DHT22;2376;53.544;10.226;2022-11-25T09:56:50;8.60;99.90
4725;DHT22;2376;53.544;10.226;2022-11-25T09:59:22;8.60;99.90
4725;DHT22;2376;53.544;10.226;2022-11-25T10:01:54;8.70;99.90
4725;DHT22;2376;53.544;10.226;2022-11-25T10:04:27;8.70;99.90
4725;DHT22;2376;53.544;10.226;2022-11-25T10:06:58;8.70;99.90
4725;DHT22;2376;53.544;10.226;2022-11-25T10:09:29;8.70;99.90
4725;DHT22;2376;53.544;10.226;2022-11-25T10:12:00;8.70;99.90
4725;DHT22;2376;53.544;10.226;2022-11-25T10:14:36;8.70;99.90
4725;DHT22;2376;53.544;10.226;2022-11-25T10:17:12;8.70;99.90
4725;DHT22;2376;53.544;10.226;2022-11-25T10:19:51;8.70;99.90
4725;DHT22;2376;53.544;10.226;2022-11-25T10:22:24;8.80;99.90
4725;DHT22;2376;53.544;10.226;2022-11-25T10:24:53;8.80;99.90
4725;DHT22;2376;53.544;10.226;2022-11-25T10:27:24;8.80;99.90
4725;DHT22;2376;53.544;10.226;2022-11-25T10:30:00;8.80;99.90
4725;DHT22;2376;53.544;10.226;2022-11-25T10:32:34;8.80;99.90
4725;DHT22;2376;53.544;10.226;2022-11-25T10:35:06;8.80;99.90
4725;DHT22;2376;53.544;10.226;2022-11-25T10:37:38;8.80;99.90
4725;DHT22;2376;53.544;10.226;2022-11-25T10:40:08;8.80;99.90
4725;DHT22;2376;53.544;10.226;2022-11-25T10:42:39;8.80;99.90
4725;DHT22;2376;53.544;10.226;2022-11-25T10:45:09;8.80;99.90
4725;DHT22;2376;53.544;10.226;2022-11-25T10:47:49;8.80;99.90
4725;DHT22;2376;53.544;10.226;2022-11-25T10:50:26;8.80;99.90
4725;DHT22;2376;53.544;10.226;2022-11-25T10:53:01;8.90;99.90
4725;DHT22;2376;53.544;10.226;2022-11-25T10:55:30;8.90;99.90
4725;DHT22;2376;53.544;10.226;2022-11-25T10:57:57;8.90;99.90
4725;DHT22;2376;53.544;10.226;2022-11-25T11:00:32;8.90;99.90
4725;DHT22;2376;53.544;10.226;2022-11-25T11:03:10;8.90;99.90
4725;DHT22;2376;53.544;10.226;2022-11-25T11:05:43;8.90;99.90
4725;DHT22;2376;53.544;10.226;2022-11-25T11:08:19;8.90;99.90
4725;DHT22;2376;53.544;10.226;2022-11-25T11:10:46;9.00;99.90
4725;DHT22;2376;53.544;10.226;2022-11-25T11:13:22;9.10;99.90
4725;DHT22;2376;53.544;10.226;2022-11-25T11:15:52;9.10;99.90
4725;DHT22;2376;53.544;10.226;2022-11-25T11:18:23;9.10;99.90
4725;DHT22;2376;53.544;10.226;2022-11-25T11:20:51;9.20;99.90
4725;DHT22;2376;53.544;10.226;2022-11-25T11:23:19;9.30;99.90
4725;DHT22;2376;53.544;10.226;2022-11-25T11:25:58;9.40;99.90
4725;DHT22;2376;53.544;10.226;2022-11-25T11:28:38;9.30;99.90
4725;DHT22;2376;53.544;10.226;2022-11-25T11:31:16;9.40;99.90
4725;DHT22;2376;53.544;10.226;2022-11-25T11:33:51;9.40;99.90
4725;DHT22;2376;53.544;10.226;2022-11-25T11:36:31;9.40;99.90
4725;DHT22;2376;53.544;10.226;2022-11-25T11:39:14;9.50;99.90
4725;DHT22;2376;53.544;10.226;2022-11-25T11:41:47;9.50;99.90
4725;DHT22;2376;53.544;10.226;2022-11-25T11:44:22;9.50;99.90
4725;DHT22;2376;53.544;10.226;2022-11-25T11:47:04;9.50;99.90
4725;DHT22;2376;53.544;10.226;2022-11-25T11:49:55;9.40;99.90
4725;DHT22;2376;53.544;10.226;2022-11-25T11:52:30;9.50;99.90
4725;DHT22;2376;53.544;10.226;2022-11-25T11:55:11;9.60;99.90
4725;DHT22;2376;53.544;10.226;2022-11-25T11:57:46;9.60;99.90
4725;DHT22;2376;53.544;10.226;2022-11-25T12:00:18;9.70;99.90
4725;DHT22;2376;53.544;10.226;2022-11-25T12:02:54;9.70;99.90
4725;DHT22;2376;53.544;10.226;2022-11-25T12:05:27;9.70;99.90
4725;DHT22;2376;53.544;10.226;2022-11-25T12:08:03;9.70;99.90
4725;DHT22;2376;53.544;10.226;2022-11-25T12:10:35;9.80;99.90
4725;DHT22;2376;53.544;10.226;2022-11-25T12:13:11;9.70;99.90
4725;DHT22;2376;53.544;10.226;2022-11-25T12:15:44;9.80;99.90
4725;DHT22;2376;53.544;10.226;2022-11-25T12:18:23;9.80;99.90
4725;DHT22;2376;53.544;10.226;2022-11-25T12:20:58;9.80;99.90
4725;DHT22;2376;53.544;10.226;2022-11-25T12:23:32;9.80;99.90
4725;DHT22;2376;53.544;10.226;2022-11-25T12:26:10;9.80;99.90
4725;DHT22;2376;53.544;10.226;2022-11-25T12:28:41;9.80;99.90
4725;DHT22;2376;53.544;10.226;2022-11-25T12:31:14;9.80;99.90
4725;DHT22;2376;53.544;10.226;2022-11-25T12:33:55;9.80;99.90
4725;DHT22;2376;53.544;10.226;2022-11-25T12:36:30;9.80;99.90
4725;DHT22;2376;53.544;10.226;2022-11-25T12:39:00;9.80;99.90
4725;DHT22;2376;53.544;10.226;2022-11-25T12:41:34;9.80;99.90
4725;DHT22;2376;53.544;10.226;2022-11-25T12:44:06;9.80;99.90
4725;DHT22;2376;53.544;10.226;2022-11-25T12:46:36;9.90;99.90
4725;DHT22;2376;53.544;10.226;2022-11-25T12:49:14;9.90;99.90
4725;DHT22;2376;53.544;10.226;2022-11-25T12:52:07;9.90;99.90
4725;DHT22;2376;53.544;10.226;2022-11-25T12:54:49;9.90;99.90
4725;DHT22;2376;53.544;10.226;2022-11-25T12:57:36;9.90;99.90
4725;DHT22;2376;53.544;10.226;2022-11-25T13:00:11;9.90;99.90
4725;DHT22;2376;53.544;10.226;2022-11-25T13:03:19;10.00;99.90
4725;DHT22;2376;53.544;10.226;2022-11-25T13:06:18;10.00;99.90
4725;DHT22;2376;53.544;10.226;2022-11-25T13:08:55;10.00;99.90
4725;DHT22;2376;53.544;10.226;2022-11-25T13:11:48;10.00;99.90
4725;DHT22;2376;53.544;10.226;2022-11-25T13:14:24;10.00;99.90
4725;DHT22;2376;53.544;10.226;2022-11-25T13:16:52;10.00;99.90
4725;DHT22;2376;53.544;10.226;2022-11-25T13:19:20;10.10;99.90
4725;DHT22;2376;53.544;10.226;2022-11-25T13:22:02;10.10;99.90
4725;DHT22;2376;53.544;10.226;2022-11-25T13:24:32;10.20;99.90
4725;DHT22;2376;53.544;10.226;2022-11-25T13:27:00;10.20;99.90
4725;DHT22;2376;53.544;10.226;2022-11-25T13:29:57;10.20;99.90
4725;DHT22;2376;53.544;10.226;2022-11-25T13:32:37;10.10;99.90
4725;DHT22;2376;53.544;10.226;2022-11-25T13:38:34;10.20;99.90
4725;DHT22;2376;53.544;10.226;2022-11-25T13:41:02;10.20;99.90
4725;DHT22;2376;53.544;10.226;2022-11-25T13:43:29;10.20;99.90
4725;DHT22;2376;53.544;10.226;2022-11-25T13:45:57;10.20;99.90
4725;DHT22;2376;53.544;10.226;2022-11-25T13:48:25;10.20;99.90
4725;DHT22;2376;53.544;10.226;2022-11-25T13:51:13;10.20;99.90
4725;DHT22;2376;53.544;10.226;2022-11-25T13:53:49;10.20;99.90
4725;DHT22;2376;53.544;10.226;2022-11-25T13:56:25;10.20;99.90
4725;DHT22;2376;53.544;10.226;2022-11-25T13:59:32;10.20;99.90
4725;DHT22;2376;53.544;10.226;2022-11-25T14:02:34;10.20;99.90
4725;DHT22;2376;53.544;10.226;2022-11-25T14:05:08;10.30;99.90
4725;DHT22;2376;53.544;10.226;2022-11-25T14:07:46;10.30;99.90
4725;DHT22;2376;53.544;10.226;2022-11-25T14:10:41;10.30;99.90
4725;DHT22;2376;53.544;10.226;2022-11-25T14:13:37;10.30;99.90
4725;DHT22;2376;53.544;10.226;2022-11-25T14:16:20;10.30;99.90
4725;DHT22;2376;53.544;10.226;2022-11-25T14:19:14;10.30;99.90
4725;DHT22;2376;53.544;10.226;2022-11-25T14:22:02;10.30;99.90
4725;DHT22;2376;53.544;10.226;2022-11-25T14:24:36;10.40;99.90
4725;DHT22;2376;53.544;10.226;2022-11-25T14:27:13;10.30;99.90
4725;DHT22;2376;53.544;10.226;2022-11-25T14:29:44;10.40;99.90
4725;DHT22;2376;53.544;10.226;2022-11-25T14:32:14;10.30;99.90
4725;DHT22;2376;53.544;10.226;2022-11-25T14:34:47;10.40;99.90
4725;DHT22;2376;53.544;10.226;2022-11-25T14:37:18;10.40;99.90
4725;DHT22;2376;53.544;10.226;2022-11-25T14:39:51;10.40;99.90
4725;DHT22;2376;53.544;10.226;2022-11-25T14:42:21;10.40;99.90
4725;DHT22;2376;53.544;10.226;2022-11-25T14:44:49;10.40;99.90
4725;DHT22;2376;53.544;10.226;2022-11-25T14:47:21;10.50;99.90
4725;DHT22;2376;53.544;10.226;2022-11-25T14:49:50;10.50;99.90
4725;DHT22;2376;53.544;10.226;2022-11-25T14:52:20;10.50;99.90
4725;DHT22;2376;53.544;10.226;2022-11-25T14:54:47;10.50;99.90
4725;DHT22;2376;53.544;10.226;2022-11-25T14:57:20;10.50;99.90
4725;DHT22;2376;53.544;10.226;2022-11-25T14:59:48;10.50;99.90
4725;DHT22;2376;53.544;10.226;2022-11-25T15:02:27;10.50;99.90
4725;DHT22;2376;53.544;10.226;2022-11-25T15:05:01;10.50;99.90
4725;DHT22;2376;53.544;10.226;2022-11-25T15:07:28;10.50;99.90
4725;DHT22;2376;53.544;10.226;2022-11-25T15:09:54;10.50;99.90
4725;DHT22;2376;53.544;10.226;2022-11-25T15:12:27;10.50;99.90
4725;DHT22;2376;53.544;10.226;2022-11-25T15:14:56;10.50;99.90
4725;DHT22;2376;53.544;10.226;2022-11-25T15:17:27;10.40;99.90
4725;DHT22;2376;53.544;10.226;2022-11-25T15:19:57;10.40;99.90
4725;DHT22;2376;53.544;10.226;2022-11-25T15:22:24;10.40;99.90
4725;DHT22;2376;53.544;10.226;2022-11-25T15:24:52;10.40;99.90
4725;DHT22;2376;53.544;10.226;2022-11-25T15:27:23;10.40;99.90
4725;DHT22;2376;53.544;10.226;2022-11-25T15:29:51;10.40;99.90
4725;DHT22;2376;53.544;10.226;2022-11-25T15:32:23;10.40;99.90
4725;DHT22;2376;53.544;10.226;2022-11-25T15:34:51;10.40;99.90
4725;DHT22;2376;53.544;10.226;2022-11-25T15:37:18;10.40;99.90
4725;DHT22;2376;53.544;10.226;2022-11-25T15:39:45;10.40;99.90
4725;DHT22;2376;53.544;10.226;2022-11-25T15:42:16;10.40;99.90
4725;DHT22;2376;53.544;10.226;2022-11-25T15:44:47;10.40;99.90
4725;DHT22;2376;53.544;10.226;2022-11-25T15:47:20;10.40;99.90
4725;DHT22;2376;53.544;10.226;2022-11-25T15:49:49;10.40;99.90
4725;DHT22;2376;53.544;10.226;2022-11-25T15:52:21;10.40;99.90
4725;DHT22;2376;53.544;10.226;2022-11-25T15:54:50;10.30;99.90
4725;DHT22;2376;53.544;10.226;2022-11-25T15:57:19;10.40;99.90
4725;DHT22;2376;53.544;10.226;2022-11-25T15:59:50;10.40;99.90
4725;DHT22;2376;53.544;10.226;2022-11-25T16:02:35;10.50;99.90
4725;DHT22;2376;53.544;10.226;2022-11-25T16:05:21;10.50;99.90
4725;DHT22;2376;53.544;10.226;2022-11-25T16:08:28;10.50;99.90
4725;DHT22;2376;53.544;10.226;2022-11-25T16:10:57;10.60;99.90
4725;DHT22;2376;53.544;10.226;2022-11-25T16:13:35;10.60;99.90
4725;DHT22;2376;53.544;10.226;2022-11-25T16:16:25;10.60;99.90
4725;DHT22;2376;53.544;10.226;2022-11-25T16:19:09;10.60;99.90
4725;DHT22;2376;53.544;10.226;2022-11-25T16:21:43;10.60;99.90
4725;DHT22;2376;53.544;10.226;2022-11-25T16:24:25;10.60;99.90
4725;DHT22;2376;53.544;10.226;2022-11-25T16:26:55;10.60;99.90
4725;DHT22;2376;53.544;10.226;2022-11-25T16:29:28;10.60;99.90